sensor_id;sensor_type;location;lat;lon;timestamp;pressure;altitude;pressure_sealevel;temperature;humidity
74544;BME280;63016;55.030;38.710;2023-03-08T09:33:53;98940.47;;;5.59;59.41
74544;BME280;63016;55.030;38.710;2023-03-08T09:36:19;98947.06;;;5.54;59.00
74544;BME280;63016;55.030;38.710;2023-03-08T09:38:49;98949.63;;;5.46;59.14
74544;BME280;63016;55.030;38.710;2023-03-08T09:44:51;98934.19;;;5.70;61.19
74544;BME280;63016;55.030;38.710;2023-03-08T09:47:48;98931.94;;;5.83;60.02
74544;BME280;63016;55.030;38.710;2023-03-08T09:52:49;98932.97;;;5.90;60.02
74544;BME280;63016;55.030;38.710;2023-03-08T09:55:24;98920.38;;;6.12;61.45
74544;BME280;63016;55.030;38.710;2023-03-08T09:58:00;98916.97;;;6.28;60.10
74544;BME280;63016;55.030;38.710;2023-03-08T10:11:37;98901.41;;;7.24;59.54
74544;BME280;63016;55.030;38.710;2023-03-08T10:14:34;98884.03;;;7.33;59.48
74544;BME280;63016;55.030;38.710;2023-03-08T10:17:16;98882.06;;;7.35;58.66
74544;BME280;63016;55.030;38.710;2023-03-08T10:19:54;98865.97;;;7.39;59.50
74544;BME280;63016;55.030;38.710;2023-03-08T10:22:24;98867.06;;;7.76;60.76
74544;BME280;63016;55.030;38.710;2023-03-08T10:25:00;98863.88;;;8.12;59.93
74544;BME280;63016;55.030;38.710;2023-03-08T10:27:27;98865.78;;;8.41;60.33
74544;BME280;63016;55.030;38.710;2023-03-08T10:29:58;98863.59;;;8.67;59.81
74544;BME280;63016;55.030;38.710;2023-03-08T10:32:26;98857.66;;;8.88;59.33
74544;BME280;63016;55.030;38.710;2023-03-08T10:34:52;98853.78;;;8.84;57.43
74544;BME280;63016;55.030;38.710;2023-03-08T10:37:30;98843.59;;;8.68;57.28
74544;BME280;63016;55.030;38.710;2023-03-08T10:39:56;98846.19;;;8.53;57.15
74544;BME280;63016;55.030;38.710;2023-03-08T10:42:25;98847.94;;;8.38;57.21
74544;BME280;63016;55.030;38.710;2023-03-08T10:44:59;98844.31;;;8.24;57.07
74544;BME280;63016;55.030;38.710;2023-03-08T10:47:29;98859.53;;;8.12;57.56
74544;BME280;63016;55.030;38.710;2023-03-08T10:50:20;98830.97;;;7.89;56.57
74544;BME280;63016;55.030;38.710;2023-03-08T10:52:48;98833.03;;;7.71;57.82
74544;BME280;63016;55.030;38.710;2023-03-08T10:55:18;98827.13;;;7.54;57.30
74544;BME280;63016;55.030;38.710;2023-03-08T10:57:54;98829.78;;;7.46;57.06
74544;BME280;63016;55.030;38.710;2023-03-08T11:00:36;98829.94;;;7.44;57.93
74544;BME280;63016;55.030;38.710;2023-03-08T11:03:10;98820.03;;;7.48;58.06
74544;BME280;63016;55.030;38.710;2023-03-08T11:05:36;98814.34;;;7.53;58.09
74544;BME280;63016;55.030;38.710;2023-03-08T11:08:02;98806.53;;;7.53;58.19
74544;BME280;63016;55.030;38.710;2023-03-08T11:10:29;98801.41;;;7.44;57.29
74544;BME280;63016;55.030;38.710;2023-03-08T11:13:28;98794.66;;;7.35;57.24
74544;BME280;63016;55.030;38.710;2023-03-08T11:21:18;98781.09;;;7.25;57.94
74544;BME280;63016;55.030;38.710;2023-03-08T11:23:59;98780.56;;;7.30;57.72
74544;BME280;63016;55.030;38.710;2023-03-08T11:40:24;98765.53;;;7.48;58.29
74544;BME280;63016;55.030;38.710;2023-03-08T11:46:05;98766.63;;;7.54;58.04
74544;BME280;63016;55.030;38.710;2023-03-08T12:04:42;98718.78;;;7.33;57.39
74544;BME280;63016;55.030;38.710;2023-03-08T12:10:21;98722.69;;;7.29;58.20
74544;BME280;63016;55.030;38.710;2023-03-08T12:13:14;98721.88;;;7.29;57.52
74544;BME280;63016;55.030;38.710;2023-03-08T12:15:42;98716.06;;;7.27;56.83
74544;BME280;63016;55.030;38.710;2023-03-08T12:18:16;98717.09;;;7.17;56.67
74544;BME280;63016;55.030;38.710;2023-03-08T12:20:43;98705.44;;;6.90;56.35
74544;BME280;63016;55.030;38.710;2023-03-08T12:26:07;98681.44;;;6.65;56.91
74544;BME280;63016;55.030;38.710;2023-03-08T12:28:39;98685.81;;;6.65;57.31
74544;BME280;63016;55.030;38.710;2023-03-08T12:33:47;98674.22;;;6.53;57.18
74544;BME280;63016;55.030;38.710;2023-03-08T12:36:13;98679.44;;;6.44;56.86
74544;BME280;63016;55.030;38.710;2023-03-08T12:38:40;98667.56;;;6.19;56.64
74544;BME280;63016;55.030;38.710;2023-03-08T12:41:21;98660.63;;;6.03;56.95
74544;BME280;63016;55.030;38.710;2023-03-08T12:44:21;98658.22;;;6.02;57.33
74544;BME280;63016;55.030;38.710;2023-03-08T12:46:54;98654.66;;;5.95;56.86
74544;BME280;63016;55.030;38.710;2023-03-08T12:49:41;98648.84;;;5.92;57.17
74544;BME280;63016;55.030;38.710;2023-03-08T12:54:43;98638.78;;;5.89;57.20
74544;BME280;63016;55.030;38.710;2023-03-08T12:57:18;98630.06;;;5.90;57.17
74544;BME280;63016;55.030;38.710;2023-03-08T12:59:45;98628.44;;;5.89;57.47
74544;BME280;63016;55.030;38.710;2023-03-08T13:02:23;98625.53;;;5.84;56.54
74544;BME280;63016;55.030;38.710;2023-03-08T13:05:03;98615.84;;;5.78;57.00
74544;BME280;63016;55.030;38.710;2023-03-08T13:07:49;98611.84;;;5.76;56.75
74544;BME280;63016;55.030;38.710;2023-03-08T13:10:22;98607.78;;;5.73;56.87
74544;BME280;63016;55.030;38.710;2023-03-08T13:15:22;98595.34;;;5.60;56.69
74544;BME280;63016;55.030;38.710;2023-03-08T13:17:58;98587.94;;;5.57;56.52
74544;BME280;63016;55.030;38.710;2023-03-08T13:23:09;98569.84;;;5.49;56.92
74544;BME280;63016;55.030;38.710;2023-03-08T13:28:19;98560.16;;;5.43;56.73
74544;BME280;63016;55.030;38.710;2023-03-08T13:30:52;98550.94;;;5.40;56.61
74544;BME280;63016;55.030;38.710;2023-03-08T13:33:30;98539.31;;;5.36;56.98
74544;BME280;63016;55.030;38.710;2023-03-08T13:39:00;98521.56;;;5.25;56.32
74544;BME280;63016;55.030;38.710;2023-03-08T13:44:05;98526.63;;;4.94;56.41
74544;BME280;63016;55.030;38.710;2023-03-08T13:46:31;98503.53;;;4.84;56.56
74544;BME280;63016;55.030;38.710;2023-03-08T13:48:57;98508.06;;;4.74;56.62
74544;BME280;63016;55.030;38.710;2023-03-08T13:51:26;98502.22;;;4.64;56.71
74544;BME280;63016;55.030;38.710;2023-03-08T13:53:53;98510.00;;;4.56;57.08
74544;BME280;63016;55.030;38.710;2023-03-08T13:56:23;98497.25;;;4.46;56.66
74544;BME280;63016;55.030;38.710;2023-03-08T13:58:50;98490.13;;;4.40;56.99
74544;BME280;63016;55.030;38.710;2023-03-08T14:01:19;98492.56;;;4.42;57.14
74544;BME280;63016;55.030;38.710;2023-03-08T14:03:47;98490.59;;;4.44;56.94
74544;BME280;63016;55.030;38.710;2023-03-08T14:08:48;98494.34;;;4.41;56.72
74544;BME280;63016;55.030;38.710;2023-03-08T14:11:26;98479.63;;;4.42;56.85
74544;BME280;63016;55.030;38.710;2023-03-08T14:13:54;98474.66;;;4.40;56.89
74544;BME280;63016;55.030;38.710;2023-03-08T14:16:27;98472.19;;;4.38;56.58
74544;BME280;63016;55.030;38.710;2023-03-08T14:18:54;98463.81;;;4.36;56.86
74544;BME280;63016;55.030;38.710;2023-03-08T14:21:28;98458.81;;;4.27;56.60
74544;BME280;63016;55.030;38.710;2023-03-08T14:24:00;98444.13;;;4.11;56.33
74544;BME280;63016;55.030;38.710;2023-03-08T14:26:33;98440.06;;;4.00;56.75
74544;BME280;63016;55.030;38.710;2023-03-08T14:34:47;98414.25;;;3.84;56.88
74544;BME280;63016;55.030;38.710;2023-03-08T14:37:29;98405.19;;;3.80;56.94
74544;BME280;63016;55.030;38.710;2023-03-08T14:40:10;98396.81;;;3.86;56.83
74544;BME280;63016;55.030;38.710;2023-03-08T14:42:45;98382.16;;;3.78;56.55
74544;BME280;63016;55.030;38.710;2023-03-08T14:48:19;98380.66;;;3.59;56.62
74544;BME280;63016;55.030;38.710;2023-03-08T14:51:28;98363.72;;;3.49;56.95
74544;BME280;63016;55.030;38.710;2023-03-08T14:53:59;98360.94;;;3.42;56.34
74544;BME280;63016;55.030;38.710;2023-03-08T14:56:27;98350.13;;;3.30;56.51
74544;BME280;63016;55.030;38.710;2023-03-08T14:58:54;98346.88;;;3.20;56.65
74544;BME280;63016;55.030;38.710;2023-03-08T15:01:25;98352.19;;;3.19;58.60
74544;BME280;63016;55.030;38.710;2023-03-08T15:03:51;98338.81;;;3.23;58.10
74544;BME280;63016;55.030;38.710;2023-03-08T15:06:35;98329.00;;;3.27;57.50
74544;BME280;63016;55.030;38.710;2023-03-08T15:09:06;98325.00;;;3.24;57.37
74544;BME280;63016;55.030;38.710;2023-03-08T15:11:32;98322.72;;;3.21;57.77
74544;BME280;63016;55.030;38.710;2023-03-08T15:13:58;98321.75;;;3.22;57.59
74544;BME280;63016;55.030;38.710;2023-03-08T15:16:24;98314.81;;;3.23;57.99
74544;BME280;63016;55.030;38.710;2023-03-08T15:18:51;98321.59;;;3.24;57.22
74544;BME280;63016;55.030;38.710;2023-03-08T15:21:20;98315.97;;;3.20;57.45
74544;BME280;63016;55.030;38.710;2023-03-08T15:23:46;98313.53;;;3.19;57.47
74544;BME280;63016;55.030;38.710;2023-03-08T15:26:17;98296.78;;;3.15;57.43
74544;BME280;63016;55.030;38.710;2023-03-08T15:28:45;98300.47;;;3.12;57.49
74544;BME280;63016;55.030;38.710;2023-03-08T15:31:10;98294.97;;;3.07;56.95
74544;BME280;63016;55.030;38.710;2023-03-08T15:33:36;98293.16;;;2.99;57.39
74544;BME280;63016;55.030;38.710;2023-03-08T15:36:02;98292.53;;;2.97;57.49
74544;BME280;63016;55.030;38.710;2023-03-08T15:38:27;98279.16;;;2.94;58.27
74544;BME280;63016;55.030;38.710;2023-03-08T15:40:53;98292.22;;;3.00;58.49
74544;BME280;63016;55.030;38.710;2023-03-08T15:43:19;98283.06;;;3.06;58.31
74544;BME280;63016;55.030;38.710;2023-03-08T15:45:44;98276.13;;;3.06;57.59
74544;BME280;63016;55.030;38.710;2023-03-08T15:48:13;98270.50;;;3.03;57.89
74544;BME280;63016;55.030;38.710;2023-03-08T15:50:39;98267.56;;;2.98;57.44
74544;BME280;63016;55.030;38.710;2023-03-08T15:53:06;98259.81;;;2.90;57.04
74544;BME280;63016;55.030;38.710;2023-03-08T15:55:32;98247.75;;;2.82;57.65
74544;BME280;63016;55.030;38.710;2023-03-08T15:57:57;98251.13;;;2.82;57.92
74544;BME280;63016;55.030;38.710;2023-03-08T16:00:24;98248.69;;;2.81;58.15
74544;BME280;63016;55.030;38.710;2023-03-08T16:02:50;98239.03;;;2.83;58.31
74544;BME280;63016;55.030;38.710;2023-03-08T16:05:18;98235.34;;;2.86;58.00
74544;BME280;63016;55.030;38.710;2023-03-08T16:07:57;98238.25;;;2.82;58.06
74544;BME280;63016;55.030;38.710;2023-03-08T16:10:25;98233.88;;;2.83;58.22
74544;BME280;63016;55.030;38.710;2023-03-08T16:12:51;98224.72;;;2.80;57.58
74544;BME280;63016;55.030;38.710;2023-03-08T16:15:18;98215.34;;;2.79;57.78
74544;BME280;63016;55.030;38.710;2023-03-08T16:17:44;98204.59;;;2.76;57.54
74544;BME280;63016;55.030;38.710;2023-03-08T16:20:12;98206.47;;;2.66;57.49
74544;BME280;63016;55.030;38.710;2023-03-08T16:22:38;98190.03;;;2.58;57.72
74544;BME280;63016;55.030;38.710;2023-03-08T16:25:04;98194.84;;;2.53;57.70
74544;BME280;63016;55.030;38.710;2023-03-08T16:27:31;98187.91;;;2.46;58.33
74544;BME280;63016;55.030;38.710;2023-03-08T16:29:59;98188.06;;;2.44;58.07
74544;BME280;63016;55.030;38.710;2023-03-08T16:32:25;98190.00;;;2.42;58.27
74544;BME280;63016;55.030;38.710;2023-03-08T16:34:58;98182.88;;;2.36;59.15
74544;BME280;63016;55.030;38.710;2023-03-08T16:37:24;98179.03;;;2.40;59.07
74544;BME280;63016;55.030;38.710;2023-03-08T16:39:50;98171.56;;;2.63;64.40
74544;BME280;63016;55.030;38.710;2023-03-08T16:42:17;98162.25;;;3.60;61.80
74544;BME280;63016;55.030;38.710;2023-03-08T16:44:51;98152.63;;;3.54;59.70
74544;BME280;63016;55.030;38.710;2023-03-08T16:47:19;98147.13;;;3.41;59.25
74544;BME280;63016;55.030;38.710;2023-03-08T16:49:44;98150.84;;;3.30;58.43
74544;BME280;63016;55.030;38.710;2023-03-08T16:52:10;98146.00;;;3.19;58.28
74544;BME280;63016;55.030;38.710;2023-03-08T16:54:36;98140.06;;;3.10;58.56
74544;BME280;63016;55.030;38.710;2023-03-08T16:57:02;98132.16;;;3.03;58.48
74544;BME280;63016;55.030;38.710;2023-03-08T16:59:30;98123.31;;;2.98;58.12
74544;BME280;63016;55.030;38.710;2023-03-08T17:01:56;98123.28;;;2.90;58.26
74544;BME280;63016;55.030;38.710;2023-03-08T17:04:21;98123.94;;;2.83;58.48
74544;BME280;63016;55.030;38.710;2023-03-08T17:06:48;98117.19;;;2.82;58.18
74544;BME280;63016;55.030;38.710;2023-03-08T17:09:13;98104.94;;;2.76;58.28
74544;BME280;63016;55.030;38.710;2023-03-08T17:11:41;98099.47;;;2.71;58.30
74544;BME280;63016;55.030;38.710;2023-03-08T17:14:11;98095.59;;;2.67;58.31
74544;BME280;63016;55.030;38.710;2023-03-08T17:16:37;98078.84;;;2.63;58.22
74544;BME280;63016;55.030;38.710;2023-03-08T17:19:06;98083.38;;;2.61;58.52
74544;BME280;63016;55.030;38.710;2023-03-08T17:21:33;98085.28;;;2.59;58.54
74544;BME280;63016;55.030;38.710;2023-03-08T17:24:03;98075.16;;;2.66;60.96
74544;BME280;63016;55.030;38.710;2023-03-08T17:26:32;98079.34;;;2.75;60.20
74544;BME280;63016;55.030;38.710;2023-03-08T17:28:58;98075.47;;;2.79;59.54
74544;BME280;63016;55.030;38.710;2023-03-08T17:31:24;98062.78;;;2.77;59.48
74544;BME280;63016;55.030;38.710;2023-03-08T17:33:50;98075.47;;;2.79;59.20
74544;BME280;63016;55.030;38.710;2023-03-08T17:36:16;98061.19;;;2.76;58.99
74544;BME280;63016;55.030;38.710;2023-03-08T17:38:42;98053.13;;;2.71;58.75
74544;BME280;63016;55.030;38.710;2023-03-08T17:41:10;98056.00;;;2.68;59.05
74544;BME280;63016;55.030;38.710;2023-03-08T17:43:36;98058.75;;;2.67;59.21
74544;BME280;63016;55.030;38.710;2023-03-08T17:46:11;98046.19;;;2.64;59.00
74544;BME280;63016;55.030;38.710;2023-03-08T17:48:37;98050.22;;;2.58;59.43
74544;BME280;63016;55.030;38.710;2023-03-08T17:51:05;98049.25;;;2.59;59.14
74544;BME280;63016;55.030;38.710;2023-03-08T17:53:31;98038.16;;;2.58;59.55
74544;BME280;63016;55.030;38.710;2023-03-08T17:55:57;98037.19;;;2.60;60.05
74544;BME280;63016;55.030;38.710;2023-03-08T17:58:27;98039.94;;;2.66;60.41
74544;BME280;63016;55.030;38.710;2023-03-08T18:00:53;98044.25;;;2.74;60.22
74544;BME280;63016;55.030;38.710;2023-03-08T18:03:19;98038.81;;;2.77;60.04
74544;BME280;63016;55.030;38.710;2023-03-08T18:05:47;98042.00;;;2.79;59.97
74544;BME280;63016;55.030;38.710;2023-03-08T18:08:13;98028.00;;;2.81;59.88
74544;BME280;63016;55.030;38.710;2023-03-08T18:10:39;98021.25;;;2.80;60.12
74544;BME280;63016;55.030;38.710;2023-03-08T18:13:04;98028.66;;;2.83;60.14
74544;BME280;63016;55.030;38.710;2023-03-08T18:15:30;98018.66;;;2.89;59.75
74544;BME280;63016;55.030;38.710;2023-03-08T18:17:55;98032.66;;;2.94;59.66
74544;BME280;63016;55.030;38.710;2023-03-08T18:20:21;98027.69;;;2.93;59.82
74544;BME280;63016;55.030;38.710;2023-03-08T18:22:48;98039.25;;;2.97;59.53
74544;BME280;63016;55.030;38.710;2023-03-08T18:25:15;98029.13;;;2.95;59.65
74544;BME280;63016;55.030;38.710;2023-03-08T18:27:40;98024.78;;;2.96;59.60
74544;BME280;63016;55.030;38.710;2023-03-08T18:30:07;98017.06;;;2.96;59.63
74544;BME280;63016;55.030;38.710;2023-03-08T18:32:33;98011.09;;;2.95;59.65
74544;BME280;63016;55.030;38.710;2023-03-08T18:34:59;98014.31;;;2.97;59.37
74544;BME280;63016;55.030;38.710;2023-03-08T18:37:24;98024.78;;;2.96;59.93
74544;BME280;63016;55.030;38.710;2023-03-08T18:39:53;98021.25;;;2.97;59.87
74544;BME280;63016;55.030;38.710;2023-03-08T18:42:19;98017.69;;;2.98;59.74
74544;BME280;63016;55.030;38.710;2023-03-08T18:44:45;98010.94;;;2.97;59.75
74544;BME280;63016;55.030;38.710;2023-03-08T18:47:10;98010.44;;;3.01;60.01
74544;BME280;63016;55.030;38.710;2023-03-08T18:49:36;98008.66;;;3.02;60.02
74544;BME280;63016;55.030;38.710;2023-03-08T18:52:02;98013.34;;;3.06;60.40
74544;BME280;63016;55.030;38.710;2023-03-08T18:54:29;98006.09;;;3.10;60.20
74544;BME280;63016;55.030;38.710;2023-03-08T18:56:55;98001.56;;;3.12;60.22
74544;BME280;63016;55.030;38.710;2023-03-08T18:59:21;98003.63;;;3.25;61.05
74544;BME280;63016;55.030;38.710;2023-03-08T19:01:47;98006.97;;;3.33;60.74
74544;BME280;63016;55.030;38.710;2023-03-08T19:04:14;97999.56;;;3.39;60.14
74544;BME280;63016;55.030;38.710;2023-03-08T19:06:40;98003.09;;;3.38;59.70
74544;BME280;63016;55.030;38.710;2023-03-08T19:09:09;98002.16;;;3.39;60.20
74544;BME280;63016;55.030;38.710;2023-03-08T19:11:35;97991.97;;;3.37;60.15
74544;BME280;63016;55.030;38.710;2023-03-08T19:14:01;97997.00;;;3.39;60.30
74544;BME280;63016;55.030;38.710;2023-03-08T19:16:28;98006.31;;;3.40;60.33
74544;BME280;63016;55.030;38.710;2023-03-08T19:18:57;98000.38;;;3.39;60.04
74544;BME280;63016;55.030;38.710;2023-03-08T19:21:28;97993.25;;;3.41;60.13
74544;BME280;63016;55.030;38.710;2023-03-08T19:23:55;97988.09;;;3.41;59.94
74544;BME280;63016;55.030;38.710;2023-03-08T19:26:23;97996.47;;;3.43;60.10
74544;BME280;63016;55.030;38.710;2023-03-08T19:31:34;97989.38;;;3.45;60.04
74544;BME280;63016;55.030;38.710;2023-03-08T19:34:01;97986.00;;;3.45;59.89
74544;BME280;63016;55.030;38.710;2023-03-08T19:36:30;97995.66;;;3.43;60.27
74544;BME280;63016;55.030;38.710;2023-03-08T19:38:56;97997.28;;;3.44;59.87
74544;BME280;63016;55.030;38.710;2023-03-08T19:41:22;97987.59;;;3.46;59.96
74544;BME280;63016;55.030;38.710;2023-03-08T19:43:47;97984.84;;;3.47;60.00
74544;BME280;63016;55.030;38.710;2023-03-08T19:46:14;97983.06;;;3.48;60.19
74544;BME280;63016;55.030;38.710;2023-03-08T19:48:45;97973.59;;;3.48;59.98
74544;BME280;63016;55.030;38.710;2023-03-08T19:51:16;97961.50;;;3.49;59.43
74544;BME280;63016;55.030;38.710;2023-03-08T19:53:42;97963.91;;;3.50;59.85
74544;BME280;63016;55.030;38.710;2023-03-08T19:56:14;97974.03;;;3.52;60.29
74544;BME280;63016;55.030;38.710;2023-03-08T19:58:40;97980.81;;;3.53;60.15
74544;BME280;63016;55.030;38.710;2023-03-08T20:01:06;97989.19;;;3.55;59.96
74544;BME280;63016;55.030;38.710;2023-03-08T20:03:35;97988.72;;;3.51;59.73
74544;BME280;63016;55.030;38.710;2023-03-08T20:06:01;97987.72;;;3.52;60.20
74544;BME280;63016;55.030;38.710;2023-03-08T20:08:26;97990.97;;;3.54;60.00
74544;BME280;63016;55.030;38.710;2023-03-08T20:10:52;97989.19;;;3.55;59.97
74544;BME280;63016;55.030;38.710;2023-03-08T20:13:18;97992.56;;;3.55;59.96
74544;BME280;63016;55.030;38.710;2023-03-08T20:15:44;97994.34;;;3.55;60.01
74544;BME280;63016;55.030;38.710;2023-03-08T20:18:10;97993.38;;;3.56;59.96
74544;BME280;63016;55.030;38.710;2023-03-08T20:20:35;97999.19;;;3.58;59.83
74544;BME280;63016;55.030;38.710;2023-03-08T20:23:01;97995.78;;;3.57;60.02
74544;BME280;63016;55.030;38.710;2023-03-08T20:25:27;97995.94;;;3.56;60.02
74544;BME280;63016;55.030;38.710;2023-03-08T20:27:53;97999.00;;;3.59;60.18
74544;BME280;63016;55.030;38.710;2023-03-08T20:30:19;98011.09;;;3.59;60.43
74544;BME280;63016;55.030;38.710;2023-03-08T20:32:46;98001.41;;;3.61;60.25
74544;BME280;63016;55.030;38.710;2023-03-08T20:35:12;97984.97;;;3.62;59.91
74544;BME280;63016;55.030;38.710;2023-03-08T20:37:39;97979.19;;;3.60;60.19
74544;BME280;63016;55.030;38.710;2023-03-08T20:40:06;97994.31;;;3.63;60.35
74544;BME280;63016;55.030;38.710;2023-03-08T20:42:33;97994.47;;;3.61;60.28
74544;BME280;63016;55.030;38.710;2023-03-08T20:45:03;97994.94;;;3.65;60.29
74544;BME280;63016;55.030;38.710;2023-03-08T20:47:29;97996.53;;;3.66;59.90
74544;BME280;63016;55.030;38.710;2023-03-08T20:49:54;97976.09;;;3.65;60.16
74544;BME280;63016;55.030;38.710;2023-03-08T20:52:20;97975.13;;;3.66;60.32
74544;BME280;63016;55.030;38.710;2023-03-08T20:54:45;97974.00;;;3.68;60.24
74544;BME280;63016;55.030;38.710;2023-03-08T20:57:11;97977.50;;;3.67;60.20
74544;BME280;63016;55.030;38.710;2023-03-08T20:59:36;97967.56;;;3.64;60.17
74544;BME280;63016;55.030;38.710;2023-03-08T21:02:02;97973.19;;;3.68;60.06
74544;BME280;63016;55.030;38.710;2023-03-08T21:04:28;97972.34;;;3.67;60.28
74544;BME280;63016;55.030;38.710;2023-03-08T21:06:54;97970.13;;;3.64;60.17
74544;BME280;63016;55.030;38.710;2023-03-08T21:09:20;97979.94;;;3.69;60.00
74544;BME280;63016;55.030;38.710;2023-03-08T21:11:47;97981.88;;;3.67;59.80
74544;BME280;63016;55.030;38.710;2023-03-08T21:14:13;98001.56;;;3.68;60.28
74544;BME280;63016;55.030;38.710;2023-03-08T21:16:39;97989.47;;;3.68;60.18
74544;BME280;63016;55.030;38.710;2023-03-08T21:19:05;98016.69;;;3.71;60.04
74544;BME280;63016;55.030;38.710;2023-03-08T21:21:33;98009.13;;;3.69;60.20
74544;BME280;63016;55.030;38.710;2023-03-08T21:24:02;98001.69;;;3.66;59.81
74544;BME280;63016;55.030;38.710;2023-03-08T21:26:30;98010.72;;;3.70;60.00
74544;BME280;63016;55.030;38.710;2023-03-08T21:28:58;98020.41;;;3.68;59.91
74544;BME280;63016;55.030;38.710;2023-03-08T21:31:27;98013.63;;;3.67;60.13
74544;BME280;63016;55.030;38.710;2023-03-08T21:33:52;98027.16;;;3.69;59.98
74544;BME280;63016;55.030;38.710;2023-03-08T21:36:18;98005.56;;;3.70;60.00
74544;BME280;63016;55.030;38.710;2023-03-08T21:38:49;98014.75;;;3.73;60.33
74544;BME280;63016;55.030;38.710;2023-03-08T21:41:20;98015.56;;;3.73;60.34
74544;BME280;63016;55.030;38.710;2023-03-08T21:43:46;98016.34;;;3.74;60.04
74544;BME280;63016;55.030;38.710;2023-03-08T21:46:12;98004.94;;;3.68;60.06
74544;BME280;63016;55.030;38.710;2023-03-08T21:48:37;98004.94;;;3.68;60.48
74544;BME280;63016;55.030;38.710;2023-03-08T21:51:04;98004.06;;;3.76;60.39
74544;BME280;63016;55.030;38.710;2023-03-08T21:53:30;97996.84;;;3.71;59.84
74544;BME280;63016;55.030;38.710;2023-03-08T21:55:56;98006.50;;;3.77;60.04
74544;BME280;63016;55.030;38.710;2023-03-08T21:58:22;98015.06;;;3.78;60.11
74544;BME280;63016;55.030;38.710;2023-03-08T22:00:48;98024.56;;;3.77;60.41
74544;BME280;63016;55.030;38.710;2023-03-08T22:03:13;98028.09;;;3.76;60.00
74544;BME280;63016;55.030;38.710;2023-03-08T22:05:39;98019.91;;;3.73;59.98
74544;BME280;63016;55.030;38.710;2023-03-08T22:08:05;98031.66;;;3.75;60.30
74544;BME280;63016;55.030;38.710;2023-03-08T22:10:30;98032.81;;;3.73;60.24
74544;BME280;63016;55.030;38.710;2023-03-08T22:12:56;98054.69;;;3.77;60.13
74544;BME280;63016;55.030;38.710;2023-03-08T22:15:21;98052.59;;;3.72;60.13
74544;BME280;63016;55.030;38.710;2023-03-08T22:17:47;98061.19;;;3.73;59.92
74544;BME280;63016;55.030;38.710;2023-03-08T22:20:13;98060.53;;;3.71;59.75
74544;BME280;63016;55.030;38.710;2023-03-08T22:22:39;98058.78;;;3.63;59.63
74544;BME280;63016;55.030;38.710;2023-03-08T22:25:06;98075.88;;;3.64;59.91
74544;BME280;63016;55.030;38.710;2023-03-08T22:27:31;98069.44;;;3.60;59.52
74544;BME280;63016;55.030;38.710;2023-03-08T22:29:57;98077.47;;;3.57;59.41
74544;BME280;63016;55.030;38.710;2023-03-08T22:32:23;98087.97;;;3.55;59.79
74544;BME280;63016;55.030;38.710;2023-03-08T22:34:49;98090.72;;;3.54;59.51
74544;BME280;63016;55.030;38.710;2023-03-08T22:37:14;98097.00;;;3.51;59.60
74544;BME280;63016;55.030;38.710;2023-03-08T22:39:40;98106.69;;;3.49;59.55
74544;BME280;63016;55.030;38.710;2023-03-08T22:42:07;98106.19;;;3.46;59.22
74544;BME280;63016;55.030;38.710;2023-03-08T22:44:32;98109.44;;;3.40;59.19
74544;BME280;63016;55.030;38.710;2023-03-08T22:46:58;98112.81;;;3.32;59.77
74544;BME280;63016;55.030;38.710;2023-03-08T22:49:24;98116.88;;;3.34;59.68
74544;BME280;63016;55.030;38.710;2023-03-08T22:51:49;98117.97;;;3.32;59.16
74544;BME280;63016;55.030;38.710;2023-03-08T22:54:19;98121.72;;;3.29;59.50
74544;BME280;63016;55.030;38.710;2023-03-08T22:56:45;98125.56;;;3.25;59.57
74544;BME280;63016;55.030;38.710;2023-03-08T22:59:11;98127.47;;;3.23;59.19
74544;BME280;63016;55.030;38.710;2023-03-08T23:01:36;98132.97;;;3.20;59.20
74544;BME280;63016;55.030;38.710;2023-03-08T23:04:03;98129.09;;;3.16;59.52
74544;BME280;63016;55.030;38.710;2023-03-08T23:06:30;98123.16;;;3.16;59.12
74544;BME280;63016;55.030;38.710;2023-03-08T23:08:58;98132.81;;;3.14;59.02
74544;BME280;63016;55.030;38.710;2023-03-08T23:11:24;98133.28;;;3.09;59.06
74544;BME280;63016;55.030;38.710;2023-03-08T23:13:50;98129.28;;;3.06;58.80
74544;BME280;63016;55.030;38.710;2023-03-08T23:16:16;98132.97;;;3.04;59.15
74544;BME280;63016;55.030;38.710;2023-03-08T23:18:42;98132.63;;;2.99;58.84
74544;BME280;63016;55.030;38.710;2023-03-08T23:21:12;98137.47;;;2.94;59.01
74544;BME280;63016;55.030;38.710;2023-03-08T23:23:39;98138.75;;;2.90;58.94
74544;BME280;63016;55.030;38.710;2023-03-08T23:26:07;98135.72;;;2.86;58.78
74544;BME280;63016;55.030;38.710;2023-03-08T23:28:34;98142.13;;;2.82;58.75
74544;BME280;63016;55.030;38.710;2023-03-08T23:31:01;98141.63;;;2.78;58.78
74544;BME280;63016;55.030;38.710;2023-03-08T23:33:31;98140.34;;;2.74;58.54
74544;BME280;63016;55.030;38.710;2023-03-08T23:35:57;98145.03;;;2.71;58.80
74544;BME280;63016;55.030;38.710;2023-03-08T23:38:22;98148.53;;;2.70;58.53
74544;BME280;63016;55.030;38.710;2023-03-08T23:40:48;98137.28;;;2.63;58.32
74544;BME280;63016;55.030;38.710;2023-03-08T23:43:13;98139.69;;;2.64;58.71
74544;BME280;63016;55.030;38.710;2023-03-08T23:45:39;98137.59;;;2.60;58.63
74544;BME280;63016;55.030;38.710;2023-03-08T23:48:05;98139.66;;;2.56;58.48
74544;BME280;63016;55.030;38.710;2023-03-08T23:50:30;98139.03;;;2.54;58.82
74544;BME280;63016;55.030;38.710;2023-03-08T23:52:56;98142.88;;;2.50;58.70
74544;BME280;63016;55.030;38.710;2023-03-08T23:55:22;98142.06;;;2.49;58.67
74544;BME280;63016;55.030;38.710;2023-03-08T23:57:47;98144.13;;;2.46;58.44
